Time;durP1;ratioP1;P1;durP2;ratioP2;P2;SDS_P1;SDS_P2;PMS_P1;PMS_P2;Temp;Humidity;BMP_temperature;BMP_pressure;BME280_temperature;BME280_humidity;BME280_pressure;Samples;Min_cycle;Max_cycle;Signal;HPM_P1;HPM_P2
2022/07/15 00:00:17;;;;;;;5.13;2.50;;;17.50;99.90;;;;;;5053105;28;20189;-47
2022/07/15 00:02:43;;;;;;;4.05;2.40;;;17.50;99.90;;;;;;5053067;28;20178;-52
2022/07/15 00:05:09;;;;;;;4.75;2.53;;;18.50;99.90;;;;;;5052499;28;20170;-52
2022/07/15 00:07:37;;;;;;;5.35;2.65;;;17.30;99.90;;;;;;5052529;28;20687;-51
2022/07/15 00:10:20;;;;;;;6.88;2.80;;;17.40;99.90;;;;;;5052694;28;20254;-51
2022/07/15 00:12:58;;;;;;;7.10;2.63;;;17.30;99.90;;;;;;5053029;28;20175;-52
2022/07/15 00:15:27;;;;;;;5.20;2.20;;;17.30;99.90;;;;;;5052507;28;20635;-52
2022/07/15 00:17:54;;;;;;;5.88;2.13;;;17.30;99.90;;;;;;5052121;28;20214;-43
2022/07/15 00:20:20;;;;;;;9.63;2.80;;;17.20;99.90;;;;;;5051957;28;20192;-43
2022/07/15 00:22:46;;;;;;;6.95;2.42;;;17.20;99.90;;;;;;5052683;28;20173;-43
2022/07/15 00:25:13;;;;;;;4.18;2.75;;;17.20;99.90;;;;;;5052401;28;20245;-43
2022/07/15 00:28:05;;;;;;;9.40;2.70;;;17.10;99.90;;;;;;5052645;28;20589;-43
2022/07/15 00:30:34;;;;;;;6.38;2.80;;;17.10;99.90;;;;;;5052575;28;20182;-43
2022/07/15 00:33:00;;;;;;;6.68;2.72;;;17.10;99.90;;;;;;5052278;28;20193;-42
2022/07/15 00:35:26;;;;;;;7.35;3.30;;;17.10;99.90;;;;;;5052212;28;20674;-43
2022/07/15 00:38:03;;;;;;;8.98;2.88;;;17.10;99.90;;;;;;5051933;28;20202;-52
2022/07/15 00:40:30;;;;;;;8.30;3.35;;;17.20;99.90;;;;;;5052131;28;20216;-42
2022/07/15 00:42:56;;;;;;;7.68;3.00;;;17.20;99.90;;;;;;5051965;28;20216;-43
2022/07/15 00:45:23;;;;;;;11.32;2.90;;;17.20;99.90;;;;;;5052164;28;20174;-43
2022/07/15 00:47:52;;;;;;;6.60;3.30;;;17.20;99.90;;;;;;5052146;28;20182;-43
2022/07/15 00:50:19;;;;;;;7.28;3.00;;;17.20;99.90;;;;;;5051846;28;20171;-43
2022/07/15 00:52:49;;;;;;;6.70;3.33;;;17.20;99.90;;;;;;5052198;28;20182;-44
2022/07/15 00:55:17;;;;;;;7.88;3.47;;;17.20;99.90;;;;;;5052012;28;20163;-43
2022/07/15 00:57:44;;;;;;;7.95;3.72;;;17.20;99.90;;;;;;5052119;28;20170;-42
2022/07/15 01:00:11;;;;;;;6.75;4.22;;;17.30;99.90;;;;;;5052038;28;20179;-43
2022/07/15 01:02:39;;;;;;;10.82;3.65;;;17.30;99.90;;;;;;5051607;28;20154;-43
2022/07/15 01:05:06;;;;;;;7.40;3.60;;;17.30;99.90;;;;;;5051672;28;20177;-42
2022/07/15 01:07:34;;;;;;;8.25;3.53;;;17.40;99.90;;;;;;5051481;28;20754;-43
2022/07/15 01:10:00;;;;;;;9.30;3.80;;;17.50;99.90;;;;;;5051568;28;20163;-43
2022/07/15 01:12:27;;;;;;;7.60;3.38;;;17.40;99.90;;;;;;5051641;28;20179;-43
2022/07/15 01:14:53;;;;;;;6.70;2.80;;;17.40;99.90;;;;;;5051322;28;20209;-42
2022/07/15 01:17:18;;;;;;;7.93;3.22;;;17.40;99.90;;;;;;5051494;28;20635;-43
2022/07/15 01:19:44;;;;;;;8.40;3.20;;;17.30;99.90;;;;;;5051662;28;20198;-43
2022/07/15 01:22:09;;;;;;;9.13;3.17;;;17.40;99.90;;;;;;5051397;28;20663;-43
2022/07/15 01:24:35;;;;;;;9.50;3.22;;;17.40;99.90;;;;;;5051367;28;20198;-43
2022/07/15 01:27:01;;;;;;;5.78;2.80;;;17.40;99.90;;;;;;5051301;28;20202;-43
2022/07/15 01:29:28;;;;;;;4.85;2.83;;;17.40;99.90;;;;;;5051465;28;20194;-46
2022/07/15 01:31:54;;;;;;;8.10;3.30;;;17.50;99.90;;;;;;5050625;28;20225;-43
2022/07/15 01:34:20;;;;;;;8.05;3.10;;;17.50;99.90;;;;;;5051314;28;20163;-45
2022/07/15 01:36:45;;;;;;;7.57;3.03;;;17.50;99.90;;;;;;5051594;28;20206;-42
2022/07/15 01:39:11;;;;;;;6.07;2.63;;;17.50;99.90;;;;;;5051037;28;20226;-48
2022/07/15 01:41:37;;;;;;;6.93;3.08;;;17.40;99.90;;;;;;5051152;28;20242;-43
2022/07/15 01:44:03;;;;;;;4.20;2.83;;;17.40;99.90;;;;;;5051256;28;20228;-42
2022/07/15 01:46:29;;;;;;;6.22;3.03;;;17.40;99.90;;;;;;5051135;28;20631;-44
2022/07/15 01:51:39;;;;;;;8.70;2.55;;;17.30;99.90;;;;;;5050985;28;20216;-43
2022/07/15 01:54:05;;;;;;;6.50;2.80;;;17.40;99.90;;;;;;5051334;28;20174;-43
2022/07/15 01:56:31;;;;;;;5.13;2.80;;;17.40;99.90;;;;;;5051165;28;20178;-42
2022/07/15 01:58:56;;;;;;;6.93;3.08;;;17.40;99.90;;;;;;5051017;28;20241;-43
2022/07/15 02:01:22;;;;;;;9.82;3.33;;;17.40;99.90;;;;;;5050952;28;20205;-43
2022/07/15 02:03:47;;;;;;;6.32;3.15;;;17.40;99.90;;;;;;5050891;28;20178;-42
2022/07/15 02:06:13;;;;;;;8.35;2.55;;;17.30;99.90;;;;;;5051200;28;20222;-44
2022/07/15 02:08:39;;;;;;;8.57;2.88;;;17.20;99.90;;;;;;5051040;28;20163;-43
2022/07/15 02:11:06;;;;;;;10.10;3.00;;;17.20;99.90;;;;;;5050788;28;20167;-42
2022/07/15 02:13:31;;;;;;;10.02;3.67;;;17.20;99.90;;;;;;5050941;28;20568;-43
2022/07/15 02:15:57;;;;;;;9.35;3.22;;;17.20;99.90;;;;;;5050807;28;20249;-53
2022/07/15 02:18:23;;;;;;;13.05;3.00;;;17.20;99.90;;;;;;5050847;28;20230;-52
2022/07/15 02:20:48;;;;;;;7.53;2.97;;;17.20;99.90;;;;;;5051098;28;20527;-52
2022/07/15 02:23:14;;;;;;;7.72;2.95;;;17.20;99.90;;;;;;5051061;28;20223;-52
2022/07/15 02:25:40;;;;;;;7.50;3.53;;;17.20;99.90;;;;;;5050770;28;20523;-52
2022/07/15 02:28:07;;;;;;;5.43;2.53;;;17.00;99.90;;;;;;5050718;28;20179;-52
2022/07/15 02:30:35;;;;;;;7.35;2.85;;;17.00;99.90;;;;;;5050939;28;20228;-53
2022/07/15 02:33:02;;;;;;;7.50;2.92;;;17.00;99.90;;;;;;5050621;28;20193;-52
2022/07/15 02:35:28;;;;;;;9.18;3.10;;;17.00;99.90;;;;;;5050948;28;20202;-52
2022/07/15 02:37:54;;;;;;;10.68;3.25;;;17.10;99.90;;;;;;5050615;28;20256;-53
2022/07/15 02:40:20;;;;;;;9.10;3.20;;;17.10;99.90;;;;;;5050702;28;20561;-50
2022/07/15 02:42:51;;;;;;;7.35;3.05;;;17.10;99.90;;;;;;5051892;28;20217;-53
2022/07/15 02:45:19;;;;;;;9.07;3.00;;;17.00;99.90;;;;;;5054220;28;20190;-50
2022/07/15 02:47:45;;;;;;;6.30;2.75;;;17.00;99.90;;;;;;5054522;28;20635;-53
2022/07/15 02:50:10;;;;;;;8.73;2.90;;;16.90;99.90;;;;;;5054162;28;20223;-53
2022/07/15 02:52:36;;;;;;;7.40;2.78;;;16.90;99.90;;;;;;5046733;28;20764;-53
2022/07/15 02:55:03;;;;;;;5.55;2.95;;;16.80;99.90;;;;;;5054050;28;20522;-53
2022/07/15 02:57:28;;;;;;;6.53;2.85;;;16.80;99.90;;;;;;5054043;28;20771;-53
2022/07/15 02:59:54;;;;;;;7.40;2.92;;;16.80;99.90;;;;;;5048365;28;20298;-52
2022/07/15 03:02:20;;;;;;;8.90;3.05;;;16.70;99.90;;;;;;5033987;28;20552;-53
2022/07/15 03:04:46;;;;;;;7.63;3.03;;;16.70;99.90;;;;;;5047488;28;20166;-52
2022/07/15 03:07:12;;;;;;;9.40;3.15;;;16.70;99.90;;;;;;5053786;28;20226;-53
2022/07/15 03:09:38;;;;;;;6.05;2.75;;;16.60;99.90;;;;;;5053779;28;20580;-53
2022/07/15 03:12:04;;;;;;;10.07;3.58;;;16.60;99.90;;;;;;5052848;28;20208;-53
2022/07/15 03:14:29;;;;;;;9.93;3.20;;;16.70;99.90;;;;;;5033821;28;20171;-52
2022/07/15 03:16:55;;;;;;;4.35;2.60;;;16.70;99.90;;;;;;5033467;28;20167;-52
2022/07/15 03:19:21;;;;;;;9.30;3.10;;;16.70;99.90;;;;;;5033569;28;20692;-52
2022/07/15 03:21:50;;;;;;;7.60;2.80;;;16.70;99.90;;;;;;5033634;28;20581;-49
2022/07/15 03:24:16;;;;;;;8.27;2.65;;;16.60;99.90;;;;;;5033758;28;20175;-43
2022/07/15 03:26:42;;;;;;;5.30;2.55;;;16.60;99.90;;;;;;5034179;28;20167;-52
2022/07/15 03:29:09;;;;;;;7.32;2.78;;;16.60;99.90;;;;;;5033560;28;20167;-50
2022/07/15 03:31:34;;;;;;;6.03;2.72;;;16.60;99.90;;;;;;5033795;28;20182;-52
2022/07/15 03:34:00;;;;;;;8.68;2.33;;;16.60;99.90;;;;;;5033426;28;20220;-52
2022/07/15 03:36:25;;;;;;;7.28;2.33;;;16.60;99.90;;;;;;5033463;28;20190;-52
2022/07/15 03:38:51;;;;;;;11.23;3.13;;;16.50;99.90;;;;;;5033222;28;20230;-46
2022/07/15 03:41:18;;;;;;;5.20;2.30;;;16.50;99.90;;;;;;5033271;28;20175;-51
2022/07/15 03:43:44;;;;;;;4.75;2.67;;;16.50;99.90;;;;;;5033635;28;20175;-54
2022/07/15 03:46:10;;;;;;;4.63;2.55;;;16.50;99.90;;;;;;5033160;28;20257;-52
2022/07/15 03:48:35;;;;;;;5.72;2.38;;;16.50;99.90;;;;;;5041659;28;21195;-52
2022/07/15 03:51:01;;;;;;;5.05;2.50;;;16.50;99.90;;;;;;5052972;28;20170;-52
2022/07/15 03:53:26;;;;;;;7.10;2.42;;;16.50;99.90;;;;;;5052899;28;20169;-51
2022/07/15 03:55:52;;;;;;;10.13;2.65;;;16.50;99.90;;;;;;5046145;28;20215;-52
2022/07/15 03:58:18;;;;;;;7.65;2.47;;;16.50;99.90;;;;;;5032866;28;20211;-52
2022/07/15 04:00:43;;;;;;;7.40;2.33;;;16.50;99.90;;;;;;5033172;28;20167;-52
2022/07/15 04:03:09;;;;;;;7.47;2.72;;;16.60;99.90;;;;;;5032741;28;20179;-43
2022/07/15 04:05:35;;;;;;;7.53;2.65;;;16.60;99.90;;;;;;5032617;28;20202;-43
2022/07/15 04:08:00;;;;;;;5.30;2.13;;;16.80;99.90;;;;;;5032729;28;20632;-43
2022/07/15 04:10:26;;;;;;;5.93;2.10;;;16.80;99.90;;;;;;5032777;28;20179;-43
2022/07/15 04:12:52;;;;;;;8.38;2.67;;;16.80;99.90;;;;;;5032911;28;20237;-43
2022/07/15 04:15:17;;;;;;;5.80;2.35;;;16.80;99.90;;;;;;5032788;28;20160;-43
2022/07/15 04:17:43;;;;;;;11.60;2.88;;;16.90;99.90;;;;;;5032756;28;20167;-46
2022/07/15 04:20:09;;;;;;;5.78;2.38;;;16.90;99.90;;;;;;5032615;28;20206;-43
2022/07/15 04:22:41;;;;;;;7.10;2.60;;;16.90;99.90;;;;;;5032350;28;20191;-43
2022/07/15 04:25:08;;;;;;;8.80;2.45;;;17.00;99.90;;;;;;5037450;28;20553;-44
2022/07/15 04:27:34;;;;;;;6.28;2.60;;;17.10;99.90;;;;;;5051670;28;20190;-44
2022/07/15 04:30:00;;;;;;;8.32;2.40;;;17.10;99.90;;;;;;5034905;28;20175;-43
2022/07/15 04:32:26;;;;;;;6.63;2.75;;;17.20;99.90;;;;;;5047919;28;20678;-44
2022/07/15 04:34:52;;;;;;;8.35;2.63;;;17.30;99.90;;;;;;5051082;28;20244;-44
2022/07/15 04:37:18;;;;;;;8.73;2.78;;;17.30;99.90;;;;;;5051991;28;20632;-43
2022/07/15 04:39:44;;;;;;;7.32;2.85;;;17.20;99.90;;;;;;5052306;28;20198;-43
2022/07/15 04:42:09;;;;;;;7.82;2.83;;;17.30;99.90;;;;;;5042742;28;20202;-42
2022/07/15 04:44:35;;;;;;;12.90;2.90;;;17.20;99.90;;;;;;5040588;28;20175;-43
2022/07/15 04:47:02;;;;;;;5.68;2.50;;;17.20;99.90;;;;;;5031728;28;20186;-41
2022/07/15 04:52:14;;;;;;;6.13;2.55;;;17.30;99.90;;;;;;5042613;28;20548;-44
2022/07/15 04:54:39;;;;;;;6.60;2.55;;;17.30;99.90;;;;;;5033853;28;20182;-44
2022/07/15 04:57:05;;;;;;;10.82;2.95;;;17.20;99.90;;;;;;5031919;28;20174;-47
2022/07/15 04:59:32;;;;;;;10.60;3.15;;;17.40;99.90;;;;;;5031949;28;20241;-44
2022/07/15 05:01:57;;;;;;;7.80;2.88;;;17.40;99.90;;;;;;5037301;28;20262;-45
2022/07/15 05:04:23;;;;;;;8.77;3.22;;;17.40;99.90;;;;;;5034869;28;20270;-46
2022/07/15 05:06:48;;;;;;;12.55;3.55;;;17.40;99.90;;;;;;5038010;28;20217;-44
2022/07/15 05:09:14;;;;;;;4.35;2.42;;;17.40;99.90;;;;;;5043477;28;20261;-43
2022/07/15 05:11:40;;;;;;;8.65;3.17;;;17.40;99.90;;;;;;5039783;28;20606;-43
2022/07/15 05:14:05;;;;;;;10.52;2.67;;;17.40;99.90;;;;;;5037773;28;21347;-44
2022/07/15 05:16:31;;;;;;;7.53;2.95;;;17.30;99.90;;;;;;5049892;28;20174;-44
2022/07/15 05:18:57;;;;;;;13.57;3.63;;;17.30;99.90;;;;;;5051074;28;20548;-46
2022/07/15 05:21:23;;;;;;;8.35;2.90;;;17.20;99.90;;;;;;5051048;28;20171;-47
2022/07/15 05:23:48;;;;;;;11.00;2.78;;;17.40;99.90;;;;;;5051071;28;20624;-44
2022/07/15 05:26:14;;;;;;;6.07;2.70;;;17.40;99.90;;;;;;5051378;28;20278;-43
2022/07/15 05:28:40;;;;;;;6.93;2.75;;;17.40;99.90;;;;;;5049694;28;20592;-49
2022/07/15 05:31:06;;;;;;;6.07;2.83;;;17.60;99.90;;;;;;5051581;28;20185;-48
2022/07/15 05:33:32;;;;;;;12.40;3.38;;;17.60;99.90;;;;;;5051438;28;20512;-51
2022/07/15 05:35:58;;;;;;;9.30;2.83;;;17.60;99.90;;;;;;5051406;28;20181;-49
2022/07/15 05:38:25;;;;;;;14.77;3.42;;;17.70;99.90;;;;;;5051772;28;20217;-50
2022/07/15 05:40:50;;;;;;;11.00;3.40;;;17.80;99.90;;;;;;5051625;28;20683;-47
2022/07/15 05:43:16;;;;;;;11.07;3.83;;;17.90;99.90;;;;;;5051576;28;20293;-43
2022/07/15 05:45:42;;;;;;;8.25;3.17;;;17.80;99.90;;;;;;5051659;28;20697;-49
2022/07/15 05:48:08;;;;;;;9.85;3.63;;;17.80;99.90;;;;;;5051575;28;20246;-51
2022/07/15 05:50:34;;;;;;;7.70;3.55;;;17.90;99.90;;;;;;5051530;28;20189;-53
2022/07/15 05:53:00;;;;;;;8.25;3.17;;;17.90;99.90;;;;;;5051465;28;20163;-53
2022/07/15 05:55:26;;;;;;;9.70;3.47;;;18.00;99.90;;;;;;5051410;28;20194;-53
2022/07/15 05:57:51;;;;;;;11.88;3.30;;;18.00;99.90;;;;;;5051366;28;20635;-51
2022/07/15 06:00:17;;;;;;;9.43;3.58;;;18.10;99.90;;;;;;5051454;28;20167;-53
2022/07/15 06:02:42;;;;;;;11.27;3.03;;;17.90;99.90;;;;;;5051736;28;20163;-53
2022/07/15 06:05:09;;;;;;;8.60;3.58;;;17.90;99.90;;;;;;5051435;28;20201;-54
2022/07/15 06:07:35;;;;;;;8.05;3.17;;;17.90;99.90;;;;;;5051294;28;20218;-53
2022/07/15 06:10:02;;;;;;;7.47;2.90;;;17.90;99.90;;;;;;5051352;28;20167;-54
2022/07/15 06:12:28;;;;;;;12.45;3.40;;;17.90;99.90;;;;;;5051465;28;20171;-52
2022/07/15 06:14:53;;;;;;;9.18;3.03;;;17.90;99.90;;;;;;5051453;28;20254;-53
2022/07/15 06:17:19;;;;;;;8.00;2.95;;;18.00;99.90;;;;;;5051530;28;20203;-54
2022/07/15 06:19:45;;;;;;;8.82;2.67;;;18.00;99.90;;;;;;5055216;28;20202;-53
2022/07/15 06:22:10;;;;;;;7.03;2.63;;;18.00;99.90;;;;;;5055232;28;20516;-50
2022/07/15 06:24:36;;;;;;;8.50;2.50;;;18.00;99.90;;;;;;5055095;28;20524;-54
2022/07/15 06:27:02;;;;;;;6.43;2.63;;;18.10;99.90;;;;;;5055026;28;20236;-53
2022/07/15 06:29:27;;;;;;;8.38;2.67;;;18.30;99.90;;;;;;5055294;28;20228;-53
2022/07/15 06:31:53;;;;;;;6.40;2.67;;;18.20;99.90;;;;;;5055093;28;20225;-52
2022/07/15 06:34:19;;;;;;;6.55;2.50;;;18.40;99.90;;;;;;5055009;28;20158;-52
2022/07/15 06:36:45;;;;;;;5.55;2.63;;;18.50;99.90;;;;;;5055209;28;20286;-44
2022/07/15 06:39:11;;;;;;;5.30;2.47;;;18.40;99.90;;;;;;5055137;28;20284;-53
2022/07/15 06:41:36;;;;;;;7.28;2.67;;;18.50;99.90;;;;;;5055135;28;20220;-51
2022/07/15 06:44:05;;;;;;;11.00;2.60;;;18.60;99.90;;;;;;5055098;28;20695;-51
2022/07/15 06:46:30;;;;;;;6.57;2.58;;;18.70;99.90;;;;;;5054765;28;20155;-50
2022/07/15 06:48:56;;;;;;;7.43;2.50;;;18.60;99.90;;;;;;5054734;28;20162;-53
2022/07/15 06:51:22;;;;;;;5.72;2.50;;;18.40;99.90;;;;;;5054674;28;20174;-52
2022/07/15 06:53:47;;;;;;;6.97;1.98;;;18.60;99.90;;;;;;5054521;28;20659;-50
2022/07/15 06:56:13;;;;;;;4.22;2.10;;;18.80;99.90;;;;;;5054959;28;20173;-51
2022/07/15 06:58:39;;;;;;;5.38;1.90;;;18.90;99.90;;;;;;5054623;28;20280;-47
2022/07/15 07:01:05;;;;;;;8.75;2.83;;;19.20;99.90;;;;;;5054574;28;20845;-53
2022/07/15 07:03:31;;;;;;;7.15;2.30;;;19.20;99.90;;;;;;5054381;28;20644;-50
2022/07/15 07:05:57;;;;;;;6.07;2.30;;;19.50;99.90;;;;;;5054172;28;20293;-52
2022/07/15 07:08:23;;;;;;;5.18;1.80;;;19.30;99.90;;;;;;5054309;28;20175;-44
2022/07/15 07:10:49;;;;;;;5.35;2.42;;;19.40;99.90;;;;;;5054309;28;20177;-48
2022/07/15 07:13:14;;;;;;;4.85;2.00;;;19.50;99.90;;;;;;5054644;28;20162;-48
2022/07/15 07:15:40;;;;;;;6.10;2.00;;;19.40;99.90;;;;;;5054144;28;20178;-46
2022/07/15 07:18:06;;;;;;;7.65;2.08;;;19.40;99.90;;;;;;5054062;28;20198;-49
2022/07/15 07:20:31;;;;;;;3.63;1.85;;;19.40;99.90;;;;;;5054368;28;20193;-47
2022/07/15 07:22:57;;;;;;;5.55;1.83;;;19.50;99.90;;;;;;5054081;28;20163;-47
2022/07/15 07:25:24;;;;;;;7.50;2.17;;;19.60;99.90;;;;;;5054040;28;20171;-46
2022/07/15 07:27:49;;;;;;;7.13;2.08;;;19.60;99.90;;;;;;5053918;28;20503;-47
2022/07/15 07:30:15;;;;;;;5.75;2.00;;;19.80;99.90;;;;;;5052628;28;20167;-45
2022/07/15 07:32:41;;;;;;;5.57;2.20;;;19.90;99.90;;;;;;5054175;28;20551;-46
2022/07/15 07:35:07;;;;;;;5.55;2.20;;;19.90;99.90;;;;;;5053830;28;20246;-46
2022/07/15 07:37:37;;;;;;;3.33;1.90;;;20.10;99.90;;;;;;5053735;28;20167;-46
2022/07/15 07:40:04;;;;;;;6.68;2.20;;;20.20;99.90;;;;;;5053657;28;20549;-45
2022/07/15 07:42:30;;;;;;;4.15;1.80;;;20.40;99.90;;;;;;5053972;28;20190;-47
2022/07/15 07:44:56;;;;;;;5.35;1.60;;;20.50;99.90;;;;;;5053722;28;20632;-47
2022/07/15 07:47:21;;;;;;;8.77;1.92;;;20.50;99.90;;;;;;5053835;28;20260;-44
2022/07/15 07:49:48;;;;;;;4.07;1.52;;;20.60;99.90;;;;;;5053451;28;20171;-44
2022/07/15 07:52:15;;;;;;;4.60;1.70;;;20.70;99.90;;;;;;5053977;28;20644;-43
2022/07/15 07:54:41;;;;;;;3.97;1.20;;;20.80;99.90;;;;;;5052510;28;20723;-45
2022/07/15 07:57:07;;;;;;;2.97;1.70;;;20.90;99.90;;;;;;5053660;28;20258;-44
2022/07/15 07:59:32;;;;;;;2.97;1.40;;;21.10;99.90;;;;;;5053304;28;20341;-46
2022/07/15 08:01:59;;;;;;;3.47;1.63;;;21.20;99.90;;;;;;5053357;28;20178;-44
2022/07/15 08:04:24;;;;;;;4.78;1.88;;;21.10;99.90;;;;;;5053271;28;20595;-44
2022/07/15 08:06:51;;;;;;;2.97;1.25;;;21.20;99.90;;;;;;5053033;28;20246;-45
2022/07/15 08:09:17;;;;;;;4.15;1.60;;;21.30;99.90;;;;;;5053494;28;20206;-44
2022/07/15 08:11:44;;;;;;;7.60;1.92;;;21.30;99.90;;;;;;5053408;28;20174;-45
2022/07/15 08:14:10;;;;;;;2.15;1.40;;;21.00;99.90;;;;;;5053712;28;20167;-44
2022/07/15 08:16:36;;;;;;;3.40;1.70;;;20.40;99.90;;;;;;5053086;28;20163;-44
2022/07/15 08:19:02;;;;;;;3.22;1.30;;;20.50;99.90;;;;;;5052975;28;20248;-44
2022/07/15 08:21:28;;;;;;;5.05;1.75;;;21.10;99.90;;;;;;5053029;28;20163;-47
2022/07/15 08:23:54;;;;;;;3.50;1.83;;;21.20;99.90;;;;;;5052968;28;20551;-47
2022/07/15 08:26:23;;;;;;;3.05;1.52;;;21.50;99.90;;;;;;5052604;28;20177;-46
2022/07/15 08:28:49;;;;;;;2.50;1.30;;;21.60;99.90;;;;;;5052999;28;20181;-44
2022/07/15 08:31:16;;;;;;;4.15;1.50;;;21.80;99.90;;;;;;5052875;28;20181;-44
2022/07/15 08:33:42;;;;;;;5.35;1.40;;;21.50;99.90;;;;;;5053254;28;20178;-45
2022/07/15 08:36:08;;;;;;;5.05;1.60;;;21.60;99.90;;;;;;5052691;28;20163;-46
2022/07/15 08:38:33;;;;;;;3.35;1.65;;;21.90;99.90;;;;;;5052532;28;20198;-49
2022/07/15 08:40:59;;;;;;;4.07;1.30;;;22.00;99.90;;;;;;5051082;28;20182;-45
2022/07/15 08:43:24;;;;;;;1.42;1.00;;;22.20;99.90;;;;;;5052575;28;20163;-52
2022/07/15 08:45:51;;;;;;;5.43;1.50;;;22.00;99.90;;;;;;5052426;28;20174;-51
2022/07/15 08:48:18;;;;;;;2.67;1.38;;;22.20;99.90;;;;;;5052726;28;20179;-51
2022/07/15 08:50:44;;;;;;;5.88;1.60;;;22.80;99.90;;;;;;5052976;28;20228;-51
2022/07/15 08:53:11;;;;;;;2.47;1.33;;;23.00;99.90;;;;;;5052731;28;20249;-48
2022/07/15 08:55:36;;;;;;;2.42;1.50;;;22.90;99.90;;;;;;5052599;28;20167;-50
2022/07/15 08:58:02;;;;;;;5.97;1.45;;;23.30;99.90;;;;;;5052178;28;20531;-52
2022/07/15 09:00:28;;;;;;;6.18;1.67;;;23.10;99.90;;;;;;5052601;28;20198;-54
2022/07/15 09:02:59;;;;;;;5.13;1.20;;;23.50;99.90;;;;;;5052517;28;20547;-53
2022/07/15 09:05:29;;;;;;;4.78;1.50;;;23.10;99.90;;;;;;5051989;28;20170;-52
2022/07/15 09:08:14;;;;;;;3.53;1.35;;;23.20;99.90;;;;;;5052089;28;20173;-51
2022/07/15 09:10:43;;;;;;;3.08;1.38;;;23.90;99.90;;;;;;5052428;28;20565;-51
2022/07/15 09:13:22;;;;;;;5.82;1.55;;;24.00;99.90;;;;;;5052068;28;20171;-52
2022/07/15 09:15:49;;;;;;;2.92;1.50;;;23.80;99.90;;;;;;5052245;28;20170;-54
2022/07/15 09:18:20;;;;;;;3.85;1.48;;;23.00;99.90;;;;;;5052176;28;20206;-47
2022/07/15 09:20:48;;;;;;;2.90;1.50;;;22.80;99.90;;;;;;5052235;28;20595;-47
2022/07/15 09:23:20;;;;;;;4.97;1.50;;;22.80;99.90;;;;;;5052207;28;20174;-47
2022/07/15 09:25:49;;;;;;;6.55;1.60;;;22.50;99.90;;;;;;5052100;28;20174;-49
2022/07/15 09:28:15;;;;;;;1.77;1.00;;;22.50;99.90;;;;;;5051741;28;20213;-45
2022/07/15 09:33:38;;;;;;;4.68;1.45;;;23.00;99.20;;;;;;5052109;28;20189;-53
2022/07/15 09:36:15;;;;;;;5.45;1.70;;;23.20;99.90;;;;;;5052075;28;20691;-53
2022/07/15 09:39:00;;;;;;;3.50;1.67;;;22.90;99.90;;;;;;5052085;28;20209;-53
2022/07/15 09:41:41;;;;;;;2.90;1.40;;;22.90;99.10;;;;;;5051655;28;20175;-52
2022/07/15 09:44:15;;;;;;;5.82;1.50;;;22.70;99.90;;;;;;5051643;28;20695;-53
2022/07/15 09:46:43;;;;;;;5.93;1.40;;;22.60;99.90;;;;;;5052128;28;20217;-45
2022/07/15 09:49:13;;;;;;;7.85;1.90;;;22.70;99.90;;;;;;5052187;28;20228;-49
2022/07/15 09:51:46;;;;;;;2.45;1.10;;;23.00;99.90;;;;;;5051831;28;20180;-52
2022/07/15 09:54:12;;;;;;;3.33;1.40;;;23.30;99.90;;;;;;5056316;28;20201;-45
2022/07/15 09:56:38;;;;;;;5.05;1.73;;;23.60;99.90;;;;;;5056124;28;20647;-51
2022/07/15 09:59:04;;;;;;;4.63;1.58;;;23.80;98.80;;;;;;5055994;28;21098;-45
2022/07/15 10:01:30;;;;;;;3.17;1.50;;;23.40;97.50;;;;;;5055846;28;20166;-47
2022/07/15 10:03:57;;;;;;;3.28;1.48;;;23.70;96.00;;;;;;5055710;28;20177;-49
2022/07/15 10:06:27;;;;;;;5.15;1.65;;;23.90;96.20;;;;;;5056024;28;20236;-50
2022/07/15 10:08:53;;;;;;;2.30;1.30;;;24.00;96.10;;;;;;5055639;28;20678;-53
2022/07/15 10:11:20;;;;;;;1.92;1.23;;;23.80;95.00;;;;;;5055532;28;20167;-50
2022/07/15 10:14:23;;;;;;;4.32;1.40;;;23.60;94.20;;;;;;5055324;28;20174;-52
2022/07/15 10:16:58;;;;;;;3.42;1.77;;;23.80;95.60;;;;;;5055344;28;20177;-47
2022/07/15 10:19:46;;;;;;;3.63;1.55;;;23.50;96.00;;;;;;5055129;28;20206;-52
2022/07/15 10:22:30;;;;;;;3.78;1.60;;;23.70;94.90;;;;;;5055526;28;20262;-53
2022/07/15 10:25:16;;;;;;;3.55;1.13;;;24.20;94.90;;;;;;5055188;28;20639;-52
2022/07/15 10:27:51;;;;;;;2.15;1.50;;;24.80;91.90;;;;;;5055777;28;20561;-50
2022/07/15 10:30:22;;;;;;;2.55;1.38;;;24.70;91.60;;;;;;5055125;28;20173;-53
2022/07/15 10:33:03;;;;;;;5.35;1.65;;;24.80;90.60;;;;;;5054955;28;20232;-51
2022/07/15 10:35:47;;;;;;;4.05;1.35;;;24.90;91.40;;;;;;5054976;28;20181;-51
2022/07/15 10:38:32;;;;;;;6.60;1.63;;;24.60;91.80;;;;;;5055420;28;20190;-51
2022/07/15 10:41:08;;;;;;;4.25;1.55;;;24.10;92.00;;;;;;5054937;28;20170;-50
2022/07/15 10:43:50;;;;;;;2.60;1.42;;;24.00;92.80;;;;;;5055113;28;20248;-50
2022/07/15 10:46:15;;;;;;;5.30;1.98;;;24.00;93.10;;;;;;5055011;28;20240;-50
2022/07/15 10:48:41;;;;;;;3.67;1.30;;;23.70;93.70;;;;;;5055044;28;20639;-49
2022/07/15 10:51:07;;;;;;;2.15;1.30;;;23.70;94.10;;;;;;5054660;28;20163;-44
2022/07/15 10:53:45;;;;;;;3.47;1.23;;;23.70;91.70;;;;;;5054604;28;20636;-48
2022/07/15 10:56:29;;;;;;;3.95;1.60;;;23.30;93.00;;;;;;5054951;28;20166;-48
2022/07/15 10:59:15;;;;;;;3.05;1.10;;;23.90;92.30;;;;;;5054359;28;20273;-50
2022/07/15 11:01:43;;;;;;;2.42;1.13;;;24.80;92.30;;;;;;5054844;28;20158;-47
2022/07/15 11:04:13;;;;;;;2.60;1.40;;;24.50;90.40;;;;;;5054486;28;20158;-45
2022/07/15 11:07:04;;;;;;;4.45;1.50;;;24.30;90.40;;;;;;5054547;28;20615;-49
2022/07/15 11:09:48;;;;;;;3.53;1.50;;;24.50;91.30;;;;;;5054543;28;20181;-45
2022/07/15 11:12:20;;;;;;;6.38;1.50;;;24.80;90.60;;;;;;5054427;28;20161;-44
2022/07/15 11:14:52;;;;;;;3.85;1.58;;;24.80;90.70;;;;;;5054262;28;20260;-44
2022/07/15 11:17:41;;;;;;;5.00;1.73;;;24.80;90.70;;;;;;5054448;28;20209;-45
2022/07/15 11:20:11;;;;;;;3.58;1.23;;;25.00;89.70;;;;;;5054403;28;20217;-44
2022/07/15 11:22:43;;;;;;;3.40;1.25;;;24.40;90.90;;;;;;5052197;28;20170;-44
2022/07/15 11:25:20;;;;;;;2.90;1.35;;;24.50;90.80;;;;;;5054077;28;20550;-44
2022/07/15 11:28:07;;;;;;;4.38;1.30;;;23.70;89.60;;;;;;5054022;28;20166;-44
2022/07/15 11:30:53;;;;;;;3.97;1.30;;;24.30;90.90;;;;;;5054267;28;20174;-44
2022/07/15 11:33:25;;;;;;;4.50;1.63;;;24.90;90.40;;;;;;5053970;28;20163;-44
2022/07/15 11:35:53;;;;;;;4.47;1.33;;;24.70;91.00;;;;;;5053940;28;20189;-45
2022/07/15 11:38:22;;;;;;;2.70;1.13;;;24.50;89.60;;;;;;5053904;28;20191;-44
2022/07/15 11:46:22;;;;;;;2.75;1.52;;;24.10;92.00;;;;;;5053696;28;20177;-44
2022/07/15 11:48:48;;;;;;;4.95;1.30;;;24.30;92.00;;;;;;5053917;28;20167;-44
2022/07/15 11:51:14;;;;;;;3.10;1.60;;;24.30;90.80;;;;;;5053617;28;20197;-46
2022/07/15 11:53:44;;;;;;;3.42;1.40;;;24.20;90.00;;;;;;5053956;28;20202;-45
2022/07/15 11:56:12;;;;;;;4.13;2.00;;;24.00;91.80;;;;;;5053955;28;20174;-45
2022/07/15 11:58:46;;;;;;;4.07;1.77;;;23.70;91.60;;;;;;5053400;28;20204;-45
2022/07/15 12:01:14;;;;;;;5.88;1.58;;;23.80;92.70;;;;;;5052506;28;20168;-49
2022/07/15 12:03:45;;;;;;;4.07;1.52;;;24.00;92.50;;;;;;5053742;28;20159;-47
2022/07/15 12:06:22;;;;;;;4.47;1.52;;;24.50;91.70;;;;;;5053506;28;20222;-47
2022/07/15 12:08:49;;;;;;;2.13;1.15;;;24.60;90.00;;;;;;5053148;28;20170;-44
2022/07/15 12:11:24;;;;;;;4.40;1.70;;;24.90;91.40;;;;;;5053282;28;20195;-44
2022/07/15 12:13:55;;;;;;;2.53;1.40;;;24.80;90.90;;;;;;5053282;28;20192;-48
2022/07/15 12:16:54;;;;;;;3.28;1.50;;;24.50;90.10;;;;;;5052741;28;20171;-47
2022/07/15 12:19:23;;;;;;;10.60;1.88;;;24.50;90.30;;;;;;5052645;28;20229;-44
2022/07/15 12:21:55;;;;;;;1.88;1.30;;;24.10;88.80;;;;;;5053317;28;20582;-44
2022/07/15 12:24:45;;;;;;;5.57;1.73;;;24.30;89.20;;;;;;5051811;28;20167;-44
2022/07/15 12:27:13;;;;;;;2.63;1.20;;;24.40;90.40;;;;;;5052811;28;20186;-45
2022/07/15 12:29:40;;;;;;;3.58;1.48;;;24.80;88.60;;;;;;5053161;28;20573;-48
2022/07/15 12:32:12;;;;;;;2.13;1.42;;;25.10;88.20;;;;;;5053291;28;20178;-44
2022/07/15 12:34:46;;;;;;;3.67;1.60;;;25.40;86.20;;;;;;5054064;28;20166;-46
2022/07/15 12:37:28;;;;;;;4.03;1.30;;;24.80;87.20;;;;;;5054353;28;20680;-48
2022/07/15 12:40:06;;;;;;;5.32;1.40;;;24.60;89.10;;;;;;5052116;28;20233;-47
2022/07/15 12:42:44;;;;;;;4.95;1.42;;;24.70;88.90;;;;;;5052979;28;20173;-45
2022/07/15 12:45:14;;;;;;;46.03;2.95;;;24.70;90.10;;;;;;5052663;28;20215;-49
2022/07/15 12:48:13;;;;;;;9.63;2.35;;;24.60;89.70;;;;;;5052886;28;20200;-48
2022/07/15 12:50:50;;;;;;;4.63;1.60;;;24.50;88.30;;;;;;5052917;28;20185;-44
2022/07/15 12:53:17;;;;;;;20.85;1.70;;;24.50;85.80;;;;;;5052867;28;20623;-44
2022/07/15 12:55:49;;;;;;;3.63;1.42;;;24.50;87.20;;;;;;5052646;28;20174;-45
2022/07/15 12:58:16;;;;;;;4.75;1.52;;;24.80;88.60;;;;;;5051635;28;20194;-45
2022/07/15 13:00:44;;;;;;;6.38;1.80;;;24.70;86.70;;;;;;5052795;28;20175;-47
2022/07/15 13:03:11;;;;;;;4.18;1.40;;;24.50;88.80;;;;;;5051574;28;20167;-44
2022/07/15 13:05:39;;;;;;;8.60;1.55;;;24.30;88.00;;;;;;5051296;28;20170;-49